Time;durP1;ratioP1;P1;durP2;ratioP2;P2;SDS_P1;SDS_P2;PMS_P1;PMS_P2;Temp;Humidity;BMP_temperature;BMP_pressure;BME280_temperature;BME280_humidity;BME280_pressure;Samples;Min_cycle;Max_cycle;Signal;HPM_P1;HPM_P2
2021/03/30 00:01:50;;;;;;;10.65;8.07;;;10.90;64.00;;;;;;5135598;27;20070;-74
2021/03/30 00:04:16;;;;;;;13.35;8.98;;;10.90;64.00;;;;;;5134865;27;20087;-74
2021/03/30 00:06:42;;;;;;;14.13;8.90;;;10.90;64.00;;;;;;5135525;27;20451;-73
2021/03/30 00:09:09;;;;;;;14.93;10.05;;;10.90;63.90;;;;;;5134967;27;20054;-73
2021/03/30 00:11:34;;;;;;;11.02;9.13;;;10.90;64.00;;;;;;5135663;27;20047;-74
2021/03/30 00:14:00;;;;;;;11.10;8.68;;;10.90;64.00;;;;;;5116495;27;20059;-74
2021/03/30 00:16:26;;;;;;;14.93;8.85;;;10.80;64.00;;;;;;5135229;27;20126;-74
2021/03/30 00:18:52;;;;;;;11.07;9.27;;;10.80;64.10;;;;;;5117542;27;20051;-74
2021/03/30 00:21:17;;;;;;;12.45;8.65;;;10.80;64.20;;;;;;5134970;27;20043;-74
2021/03/30 00:23:43;;;;;;;11.07;8.68;;;10.80;64.30;;;;;;5135563;27;20459;-73
2021/03/30 00:26:09;;;;;;;11.32;8.40;;;10.70;64.30;;;;;;5116348;27;20035;-74
2021/03/30 00:28:35;;;;;;;11.85;8.20;;;10.80;64.40;;;;;;5134930;27;20051;-73
2021/03/30 00:31:01;;;;;;;13.20;9.05;;;10.70;64.30;;;;;;5135401;27;20564;-74
2021/03/30 00:33:26;;;;;;;9.50;8.30;;;10.70;64.20;;;;;;5134771;27;20152;-74
2021/03/30 00:35:52;;;;;;;11.98;9.27;;;10.70;64.20;;;;;;5133750;27;20329;-73
2021/03/30 00:38:19;;;;;;;15.27;9.40;;;10.70;64.20;;;;;;5134380;27;20047;-74
2021/03/30 00:40:44;;;;;;;12.07;9.15;;;10.70;64.20;;;;;;5114761;27;20108;-74
2021/03/30 00:43:10;;;;;;;12.75;8.95;;;10.70;64.20;;;;;;5112313;27;20050;-74
2021/03/30 00:45:36;;;;;;;13.25;9.20;;;10.70;64.20;;;;;;5135347;27;20050;-74
2021/03/30 00:48:02;;;;;;;12.63;9.93;;;10.60;64.00;;;;;;5116662;27;20046;-74
2021/03/30 00:50:36;;;;;;;14.73;10.23;;;10.70;64.10;;;;;;5116039;27;20043;-74
2021/03/30 00:53:02;;;;;;;12.65;9.57;;;10.70;63.90;;;;;;5116966;27;20095;-73
2021/03/30 00:55:28;;;;;;;13.65;9.70;;;10.70;63.90;;;;;;5116215;27;20512;-75
2021/03/30 00:57:54;;;;;;;11.18;9.00;;;10.60;63.90;;;;;;5116452;27;20039;-74
2021/03/30 01:00:21;;;;;;;13.70;9.57;;;10.60;63.80;;;;;;5065695;27;20054;-74
2021/03/30 01:02:46;;;;;;;11.02;9.02;;;10.60;63.90;;;;;;5116866;27;20051;-73
2021/03/30 01:05:13;;;;;;;13.90;10.35;;;10.60;63.90;;;;;;5081969;27;20406;-71
2021/03/30 01:07:47;;;;;;;10.10;9.02;;;10.60;63.80;;;;;;5116292;27;20039;-73
2021/03/30 01:10:23;;;;;;;13.18;9.52;;;10.60;63.90;;;;;;5082851;27;20036;-75
2021/03/30 01:13:05;;;;;;;14.95;9.23;;;10.60;63.90;;;;;;5116309;27;20467;-74
2021/03/30 01:15:37;;;;;;;11.00;9.30;;;10.60;63.90;;;;;;5134017;27;20047;-75
2021/03/30 01:18:17;;;;;;;15.63;10.02;;;10.60;63.70;;;;;;5113605;28;20058;-74
2021/03/30 01:21:05;;;;;;;11.95;9.00;;;10.60;63.60;;;;;;5096386;28;20143;-73
2021/03/30 01:24:03;;;;;;;13.43;8.77;;;10.60;63.70;;;;;;5130987;27;20038;-73
2021/03/30 01:26:28;;;;;;;13.10;9.30;;;10.60;63.70;;;;;;5113775;28;20103;-73
2021/03/30 01:29:01;;;;;;;12.15;8.77;;;10.50;63.60;;;;;;5115727;28;20035;-73
2021/03/30 01:31:28;;;;;;;13.68;8.52;;;10.50;63.50;;;;;;5133613;28;20125;-73
2021/03/30 01:33:54;;;;;;;12.65;9.02;;;10.50;63.50;;;;;;5116587;28;20046;-73
2021/03/30 01:36:20;;;;;;;12.07;8.68;;;10.60;63.50;;;;;;5082370;28;20487;-73
2021/03/30 01:38:46;;;;;;;9.85;7.97;;;10.50;63.50;;;;;;5116669;28;20051;-73
2021/03/30 01:41:12;;;;;;;11.30;8.93;;;10.50;63.50;;;;;;5081951;28;20043;-73
2021/03/30 01:43:40;;;;;;;13.70;10.05;;;10.50;63.40;;;;;;5099354;28;20054;-73
2021/03/30 01:46:06;;;;;;;14.15;9.63;;;10.50;63.10;;;;;;5117188;28;20077;-73
2021/03/30 01:48:32;;;;;;;13.18;8.40;;;10.50;62.90;;;;;;5113608;27;20050;-72
2021/03/30 01:50:58;;;;;;;12.15;8.70;;;10.50;63.00;;;;;;5100479;27;20039;-73
2021/03/30 01:53:23;;;;;;;11.70;8.52;;;10.50;63.00;;;;;;5082807;27;20134;-74
2021/03/30 01:55:53;;;;;;;11.80;8.50;;;10.50;63.20;;;;;;5117364;27;20039;-73
2021/03/30 01:58:20;;;;;;;11.98;8.43;;;10.40;63.10;;;;;;5116119;27;20095;-73
2021/03/30 02:00:46;;;;;;;11.23;9.30;;;10.40;63.20;;;;;;5117512;27;20082;-73
2021/03/30 02:03:12;;;;;;;12.30;8.82;;;10.40;63.20;;;;;;5117324;27;20050;-73
2021/03/30 02:05:38;;;;;;;12.93;8.63;;;10.40;63.10;;;;;;5116746;27;20041;-73
2021/03/30 02:08:03;;;;;;;11.10;9.07;;;10.40;63.10;;;;;;5100255;27;20113;-73
2021/03/30 02:10:43;;;;;;;13.65;8.65;;;10.40;63.10;;;;;;5116341;27;20172;-72
2021/03/30 02:13:10;;;;;;;12.23;9.32;;;10.40;63.20;;;;;;5104339;27;20039;-73
2021/03/30 02:15:35;;;;;;;13.20;9.82;;;10.40;63.10;;;;;;5115995;27;20054;-73
2021/03/30 02:18:08;;;;;;;12.45;8.75;;;10.40;63.10;;;;;;5100074;27;20047;-74
2021/03/30 02:20:34;;;;;;;;;;;10.40;63.10;;;;;;5116709;27;20062;-73
2021/03/30 02:23:06;;;;;;;13.43;8.55;;;10.30;63.00;;;;;;5134218;27;19923;-73
2021/03/30 02:25:32;;;;;;;13.23;9.48;;;10.40;63.00;;;;;;5134480;27;20039;-73
2021/03/30 02:28:07;;;;;;;9.80;8.40;;;10.40;63.00;;;;;;5116500;27;20432;-74
2021/03/30 02:30:34;;;;;;;11.85;8.90;;;10.40;63.00;;;;;;5134308;27;20047;-74
2021/03/30 02:33:01;;;;;;;11.93;8.73;;;10.30;63.00;;;;;;5116856;27;20039;-72
2021/03/30 02:35:26;;;;;;;12.07;9.25;;;10.40;63.10;;;;;;5098910;27;20042;-73
2021/03/30 02:37:52;;;;;;;11.93;8.23;;;10.40;63.10;;;;;;5134319;27;20063;-73
2021/03/30 02:40:20;;;;;;;13.18;9.07;;;10.40;63.10;;;;;;5098723;27;20074;-75
2021/03/30 02:42:47;;;;;;;10.77;9.13;;;10.40;63.30;;;;;;5117032;27;20039;-74
2021/03/30 02:45:15;;;;;;;10.77;8.20;;;10.40;64.00;;;;;;5116095;27;20432;-73
2021/03/30 02:47:41;;;;;;;12.82;9.23;;;10.30;63.10;;;;;;5098735;27;20051;-72
2021/03/30 02:50:08;;;;;;;12.75;8.85;;;10.30;63.10;;;;;;5099643;27;20108;-73
2021/03/30 02:52:33;;;;;;;14.00;9.00;;;10.30;63.00;;;;;;5098298;27;20071;-73
2021/03/30 02:55:00;;;;;;;12.55;8.85;;;10.30;63.20;;;;;;5099424;27;20070;-73
2021/03/30 02:57:26;;;;;;;10.98;8.80;;;10.30;63.20;;;;;;5098488;27;20384;-74
2021/03/30 02:59:53;;;;;;;11.18;8.63;;;10.30;63.20;;;;;;5115859;27;20102;-73
2021/03/30 03:02:19;;;;;;;15.77;8.98;;;10.20;63.10;;;;;;5116105;27;20043;-73
2021/03/30 03:04:47;;;;;;;11.18;8.50;;;10.20;63.20;;;;;;5081782;27;20107;-73
2021/03/30 03:07:14;;;;;;;10.95;8.80;;;10.30;63.30;;;;;;5116361;27;20149;-73
2021/03/30 03:09:39;;;;;;;11.68;8.35;;;10.20;63.20;;;;;;5098275;27;20051;-73
2021/03/30 03:12:06;;;;;;;14.25;9.00;;;10.20;63.00;;;;;;5116142;27;20063;-73
2021/03/30 03:14:32;;;;;;;13.57;8.82;;;10.20;63.20;;;;;;5114980;27;20493;-72
2021/03/30 03:16:57;;;;;;;11.52;9.05;;;10.20;63.20;;;;;;5098899;27;20040;-73
2021/03/30 03:19:24;;;;;;;10.10;8.07;;;10.20;63.10;;;;;;5098681;27;20054;-74
2021/03/30 03:21:49;;;;;;;13.13;9.25;;;10.20;63.10;;;;;;5115674;27;20499;-74
2021/03/30 03:24:15;;;;;;;11.38;8.93;;;10.20;63.20;;;;;;5098989;27;20172;-74
2021/03/30 03:26:41;;;;;;;12.32;9.60;;;10.20;63.30;;;;;;5097535;27;20474;-73
2021/03/30 03:29:14;;;;;;;13.00;8.98;;;10.10;63.30;;;;;;5098976;27;20074;-73
2021/03/30 03:31:41;;;;;;;13.80;9.23;;;10.10;63.30;;;;;;5133277;27;20489;-73
2021/03/30 03:34:06;;;;;;;11.55;8.85;;;10.10;63.30;;;;;;5098546;27;20419;-72
2021/03/30 03:36:41;;;;;;;13.98;9.23;;;10.10;63.30;;;;;;5097742;27;20092;-72
2021/03/30 03:39:08;;;;;;;12.25;9.07;;;10.10;63.30;;;;;;5133993;27;20049;-73
2021/03/30 03:41:34;;;;;;;12.93;8.88;;;10.10;63.30;;;;;;5114883;27;20050;-72
2021/03/30 03:44:00;;;;;;;12.15;9.15;;;10.10;63.30;;;;;;5115291;27;20047;-72
2021/03/30 03:46:26;;;;;;;14.50;8.93;;;10.00;63.20;;;;;;5115058;27;20073;-74
2021/03/30 03:48:52;;;;;;;13.63;9.43;;;10.00;63.20;;;;;;5114801;27;20044;-74
2021/03/30 03:51:18;;;;;;;10.75;8.85;;;10.00;63.20;;;;;;5098199;27;20077;-74
2021/03/30 03:53:44;;;;;;;12.40;8.27;;;9.90;63.20;;;;;;5132341;27;20043;-74
2021/03/30 03:56:10;;;;;;;11.95;8.55;;;9.90;63.20;;;;;;5115098;27;20071;-74
2021/03/30 03:58:44;;;;;;;14.38;8.90;;;9.90;63.40;;;;;;5114217;27;20518;-73
2021/03/30 04:01:15;;;;;;;15.15;9.05;;;9.90;63.40;;;;;;5114874;27;20405;-73
2021/03/30 04:03:52;;;;;;;10.73;9.13;;;9.90;63.50;;;;;;5080428;27;20054;-73
2021/03/30 04:06:21;;;;;;;10.50;9.00;;;9.80;63.40;;;;;;5115854;27;20062;-73
2021/03/30 04:08:56;;;;;;;14.20;10.35;;;9.80;63.40;;;;;;5097216;27;20133;-73
2021/03/30 04:11:22;;;;;;;12.57;9.88;;;9.80;63.40;;;;;;5113735;27;20039;-72
2021/03/30 04:13:48;;;;;;;11.38;9.75;;;9.70;63.40;;;;;;5097027;27;20147;-73
2021/03/30 04:16:14;;;;;;;12.30;8.57;;;9.70;63.40;;;;;;5097812;27;20112;-73
2021/03/30 04:18:41;;;;;;;12.73;9.57;;;9.70;63.40;;;;;;5096851;27;20452;-74
2021/03/30 04:21:11;;;;;;;12.82;9.32;;;9.70;63.40;;;;;;5114614;27;20050;-73
2021/03/30 04:23:43;;;;;;;13.27;9.98;;;9.70;63.40;;;;;;5097576;27;20043;-73
2021/03/30 04:26:09;;;;;;;11.35;9.73;;;9.60;63.40;;;;;;5132888;27;20035;-73
2021/03/30 04:28:35;;;;;;;13.45;10.18;;;9.60;63.40;;;;;;5132101;27;20483;-73
2021/03/30 04:31:00;;;;;;;13.20;9.68;;;9.60;63.40;;;;;;5132898;27;20062;-74
2021/03/30 04:33:26;;;;;;;13.82;9.80;;;9.50;63.40;;;;;;5132510;27;20118;-72
2021/03/30 04:35:52;;;;;;;12.35;9.40;;;9.50;63.40;;;;;;5131853;27;20039;-74
2021/03/30 04:38:18;;;;;;;16.05;9.57;;;9.50;63.40;;;;;;5114280;27;20054;-73
2021/03/30 04:40:50;;;;;;;12.30;9.50;;;9.40;63.40;;;;;;5113291;27;20031;-73
2021/03/30 04:43:16;;;;;;;;;;;9.40;63.50;;;;;;5133057;27;20462;-73
2021/03/30 04:45:41;;;;;;;15.52;10.30;;;9.40;63.30;;;;;;5113378;27;20010;-74
2021/03/30 04:48:08;;;;;;;14.00;9.88;;;9.40;63.50;;;;;;5114175;27;20035;-73
2021/03/30 04:50:34;;;;;;;13.07;10.23;;;9.30;63.40;;;;;;5130321;27;20482;-73
2021/03/30 04:52:59;;;;;;;11.75;10.02;;;9.30;63.40;;;;;;5107697;27;20042;-73
2021/03/30 04:55:25;;;;;;;14.68;9.63;;;9.30;63.60;;;;;;5128176;27;20498;-73
2021/03/30 04:57:51;;;;;;;11.95;9.35;;;9.30;63.70;;;;;;5126783;27;20033;-73
2021/03/30 05:00:18;;;;;;;12.73;9.77;;;9.20;63.60;;;;;;5105847;27;20114;-73
2021/03/30 05:02:44;;;;;;;15.15;10.48;;;9.20;63.70;;;;;;5123690;27;20051;-73
2021/03/30 05:05:11;;;;;;;14.52;9.57;;;9.20;63.70;;;;;;5127203;27;20044;-74
2021/03/30 05:07:37;;;;;;;12.95;10.10;;;9.20;63.80;;;;;;5110729;27;20039;-74
2021/03/30 05:10:04;;;;;;;13.75;9.75;;;9.10;63.80;;;;;;5125354;27;20072;-73
2021/03/30 05:12:30;;;;;;;12.98;10.05;;;9.10;63.70;;;;;;5122141;27;20050;-73
2021/03/30 05:14:55;;;;;;;14.15;10.18;;;9.10;63.80;;;;;;5127395;27;20043;-73
2021/03/30 05:17:21;;;;;;;16.23;10.07;;;9.10;63.80;;;;;;5107218;28;20028;-74
2021/03/30 05:19:47;;;;;;;14.45;9.70;;;9.10;63.80;;;;;;5103657;28;20043;-73
2021/03/30 05:22:13;;;;;;;14.60;9.90;;;9.00;63.80;;;;;;5130133;27;20063;-73
2021/03/30 05:24:38;;;;;;;13.88;8.95;;;9.00;63.80;;;;;;5112675;27;20051;-74
2021/03/30 05:27:05;;;;;;;14.13;10.05;;;9.00;63.90;;;;;;5108424;28;20456;-74
2021/03/30 05:29:31;;;;;;;13.75;9.38;;;8.90;63.80;;;;;;5121543;28;20087;-74
2021/03/30 05:31:57;;;;;;;13.57;9.85;;;8.90;63.80;;;;;;5105280;28;20503;-74
2021/03/30 05:34:22;;;;;;;12.45;9.52;;;8.90;63.80;;;;;;5109876;28;20043;-75
2021/03/30 05:36:48;;;;;;;13.48;10.15;;;8.90;63.90;;;;;;5083387;28;20045;-81
2021/03/30 05:39:14;;;;;;;13.63;9.63;;;8.90;63.90;;;;;;5087836;28;20043;-78
2021/03/30 05:41:40;;;;;;;15.98;11.25;;;8.90;63.90;;;;;;5114185;28;20051;-87
2021/03/30 05:44:07;;;;;;;12.43;10.25;;;8.80;64.00;;;;;;5099246;28;20035;-84
2021/03/30 05:46:33;;;;;;;15.65;10.68;;;8.80;64.00;;;;;;5115425;28;20047;-79
2021/03/30 05:48:59;;;;;;;15.82;11.90;;;8.80;64.10;;;;;;5099071;28;20051;-79
2021/03/30 05:51:25;;;;;;;18.10;11.20;;;8.80;64.60;;;;;;5110903;28;20047;-84
2021/03/30 05:53:55;;;;;;;13.68;10.40;;;8.80;64.20;;;;;;5073822;28;20043;-79
2021/03/30 05:56:20;;;;;;;12.98;11.00;;;8.80;64.30;;;;;;5113654;28;20043;-80
2021/03/30 05:58:46;;;;;;;15.65;11.23;;;8.80;64.20;;;;;;5075729;28;20039;-76
2021/03/30 06:01:13;;;;;;;14.68;11.10;;;8.80;64.20;;;;;;5096847;28;20044;-78
2021/03/30 06:03:38;;;;;;;15.25;10.05;;;8.80;64.20;;;;;;5073392;28;20039;-78
2021/03/30 06:06:04;;;;;;;13.10;9.70;;;8.70;64.20;;;;;;5098358;28;20241;-77
2021/03/30 06:08:31;;;;;;;14.25;10.73;;;8.80;64.30;;;;;;5129517;28;20039;-76
2021/03/30 06:11:04;;;;;;;14.27;10.23;;;8.70;64.40;;;;;;5106343;28;20403;-77
2021/03/30 06:13:45;;;;;;;13.15;10.23;;;8.70;64.40;;;;;;5073023;28;20379;-75
2021/03/30 06:16:36;;;;;;;13.55;10.50;;;8.80;64.40;;;;;;5094627;28;20050;-80
2021/03/30 06:19:03;;;;;;;13.95;10.48;;;8.80;64.40;;;;;;5108393;28;20061;-80
2021/03/30 06:21:28;;;;;;;15.57;10.00;;;8.70;64.30;;;;;;5111846;28;20043;-77
2021/03/30 06:23:55;;;;;;;14.38;10.63;;;8.80;64.40;;;;;;5127905;28;20130;-79
2021/03/30 06:26:24;;;;;;;15.10;10.10;;;8.80;64.40;;;;;;5085449;28;20063;-78
2021/03/30 06:28:50;;;;;;;14.45;11.25;;;8.80;64.40;;;;;;5071259;28;20481;-79
2021/03/30 06:31:16;;;;;;;14.18;10.45;;;8.80;64.40;;;;;;5090394;28;20064;-78
2021/03/30 06:33:52;;;;;;;14.75;10.05;;;8.80;64.40;;;;;;5106802;28;20040;-78
2021/03/30 06:36:22;;;;;;;14.40;10.82;;;8.80;64.40;;;;;;5060143;28;20353;-78
2021/03/30 06:38:52;;;;;;;13.10;10.02;;;8.80;64.40;;;;;;5076489;28;20052;-79
2021/03/30 06:44:27;;;;;;;14.90;10.98;;;8.80;64.50;;;;;;5085455;28;20115;-77
2021/03/30 06:46:58;;;;;;;12.63;10.60;;;8.80;64.30;;;;;;5102084;28;20067;-78
2021/03/30 06:49:25;;;;;;;12.50;10.57;;;8.80;64.40;;;;;;5084027;28;20076;-77
2021/03/30 06:51:51;;;;;;;11.93;10.55;;;8.80;64.40;;;;;;5100523;28;20046;-78
2021/03/30 06:54:17;;;;;;;12.77;10.40;;;8.80;64.40;;;;;;5100947;28;20071;-77
2021/03/30 06:56:53;;;;;;;12.85;11.25;;;8.80;64.30;;;;;;5084027;28;20036;-78
2021/03/30 06:59:19;;;;;;;13.55;10.35;;;8.90;64.30;;;;;;5101057;28;20056;-78
2021/03/30 07:01:46;;;;;;;14.27;11.13;;;8.90;64.30;;;;;;5100934;28;20536;-78
2021/03/30 07:04:12;;;;;;;13.63;10.80;;;8.90;64.30;;;;;;5100474;28;20048;-78
2021/03/30 07:06:39;;;;;;;14.05;11.18;;;8.90;64.30;;;;;;5100785;28;20044;-78
2021/03/30 07:09:07;;;;;;;13.68;12.15;;;8.90;64.20;;;;;;5100084;28;20096;-77
2021/03/30 07:11:33;;;;;;;17.58;11.32;;;8.90;64.20;;;;;;5083980;28;20135;-77
2021/03/30 07:13:59;;;;;;;15.38;11.48;;;9.00;64.40;;;;;;5100396;28;20056;-78
2021/03/30 07:16:48;;;;;;;14.95;11.18;;;9.00;64.20;;;;;;5083946;28;20064;-78
2021/03/30 07:19:14;;;;;;;17.15;11.60;;;9.00;64.00;;;;;;5100177;28;20046;-78
2021/03/30 07:22:06;;;;;;;15.73;11.80;;;9.00;63.80;;;;;;5100555;28;20220;-78
2021/03/30 07:24:53;;;;;;;;;;;9.00;63.90;;;;;;5101165;28;20036;-78
2021/03/30 07:27:23;;;;;;;15.20;11.98;;;9.10;63.70;;;;;;5083387;28;19991;-78
2021/03/30 07:29:50;;;;;;;16.17;12.10;;;9.10;63.70;;;;;;5083961;28;20185;-77
2021/03/30 07:32:35;;;;;;;13.98;11.68;;;9.10;63.50;;;;;;5083023;28;20056;-78
2021/03/30 07:35:11;;;;;;;16.83;13.07;;;9.10;63.30;;;;;;5083530;28;20503;-78
2021/03/30 07:37:47;;;;;;;14.20;11.45;;;9.10;63.20;;;;;;5067043;28;20122;-77
2021/03/30 07:40:14;;;;;;;14.73;11.60;;;9.20;63.30;;;;;;5084062;28;20036;-77
2021/03/30 07:42:41;;;;;;;14.43;11.60;;;9.30;63.10;;;;;;5101598;28;20085;-76
2021/03/30 07:45:08;;;;;;;15.15;11.85;;;9.30;63.10;;;;;;5083941;28;20072;-77
2021/03/30 07:47:34;;;;;;;13.30;11.88;;;9.30;62.80;;;;;;5083774;28;20045;-77
2021/03/30 07:50:00;;;;;;;16.13;11.93;;;9.30;62.70;;;;;;5066910;28;20524;-76
2021/03/30 07:52:28;;;;;;;19.00;12.63;;;9.40;62.70;;;;;;5083319;28;20405;-78
2021/03/30 07:55:14;;;;;;;17.50;12.63;;;9.40;62.50;;;;;;5083378;28;20040;-77
2021/03/30 07:58:06;;;;;;;14.40;11.70;;;9.50;62.20;;;;;;5083087;28;20040;-77
2021/03/30 08:00:32;;;;;;;17.90;13.03;;;9.50;62.10;;;;;;5083566;28;20052;-79
2021/03/30 08:03:00;;;;;;;16.00;12.10;;;9.60;62.20;;;;;;5100022;28;20040;-78
2021/03/30 08:05:31;;;;;;;16.35;12.13;;;9.70;62.00;;;;;;5082930;28;20135;-78
2021/03/30 08:07:57;;;;;;;16.90;12.40;;;9.70;61.80;;;;;;5082765;28;20044;-78
2021/03/30 08:10:28;;;;;;;16.23;12.30;;;9.80;61.80;;;;;;5099484;28;20051;-78
2021/03/30 08:13:31;;;;;;;16.52;13.23;;;9.80;61.70;;;;;;5082565;28;20063;-77
2021/03/30 08:16:04;;;;;;;13.07;11.77;;;9.90;61.60;;;;;;5099102;28;20562;-78
2021/03/30 08:18:31;;;;;;;;;;;9.90;61.60;;;;;;5083475;28;20131;-79
2021/03/30 08:20:56;;;;;;;19.55;11.65;;;10.00;61.50;;;;;;5099200;28;19920;-78
2021/03/30 08:23:23;;;;;;;16.83;11.50;;;10.00;61.50;;;;;;5115517;28;20050;-79
2021/03/30 08:25:52;;;;;;;15.15;12.50;;;10.10;61.20;;;;;;5082443;28;20401;-79
2021/03/30 08:28:59;;;;;;;16.13;11.43;;;10.20;61.20;;;;;;5078516;28;20056;-78
2021/03/30 08:31:27;;;;;;;16.27;12.63;;;10.20;60.90;;;;;;5078566;28;20060;-77
2021/03/30 08:33:55;;;;;;;16.05;11.50;;;10.30;61.00;;;;;;5078648;28;20120;-77
2021/03/30 08:36:26;;;;;;;15.05;10.77;;;10.40;61.00;;;;;;5078329;28;20250;-77
2021/03/30 08:38:53;;;;;;;12.50;11.00;;;10.50;60.60;;;;;;5095281;28;20067;-78
2021/03/30 08:41:41;;;;;;;16.13;10.38;;;10.50;60.30;;;;;;5078339;28;20326;-77
2021/03/30 08:44:37;;;;;;;16.05;11.05;;;10.60;60.00;;;;;;5079284;28;20050;-79
2021/03/30 08:47:04;;;;;;;14.82;10.35;;;10.60;59.90;;;;;;5094852;28;20052;-78
2021/03/30 08:49:36;;;;;;;17.70;11.57;;;10.70;60.10;;;;;;5094749;28;20476;-78
2021/03/30 08:52:15;;;;;;;14.70;10.93;;;10.80;60.00;;;;;;5095449;28;20373;-79
2021/03/30 08:54:55;;;;;;;15.80;11.52;;;10.90;60.00;;;;;;5078424;28;20070;-78
2021/03/30 08:57:25;;;;;;;14.60;10.70;;;11.00;60.00;;;;;;5061680;28;20043;-78
2021/03/30 08:59:50;;;;;;;15.70;10.45;;;11.00;59.90;;;;;;5094641;28;20049;-78
2021/03/30 09:02:24;;;;;;;16.70;10.20;;;11.00;59.70;;;;;;5077818;28;20044;-78
2021/03/30 09:04:49;;;;;;;14.45;9.57;;;11.10;60.00;;;;;;5077922;28;20032;-79
2021/03/30 09:07:15;;;;;;;14.07;9.50;;;11.20;59.10;;;;;;5077902;28;20495;-78
2021/03/30 09:09:41;;;;;;;14.15;10.20;;;11.20;58.60;;;;;;5044930;28;20536;-78
2021/03/30 09:12:27;;;;;;;14.15;9.75;;;11.30;58.50;;;;;;5077938;28;20079;-78
2021/03/30 09:15:01;;;;;;;13.68;8.50;;;11.40;58.00;;;;;;5094898;28;20139;-78
2021/03/30 09:17:28;;;;;;;13.88;9.98;;;11.50;58.10;;;;;;5077739;28;20093;-78
2021/03/30 09:19:54;;;;;;;13.02;9.45;;;11.60;58.20;;;;;;5062007;28;20043;-78
2021/03/30 09:24:59;;;;;;;12.68;10.05;;;11.80;58.20;;;;;;5079204;28;20085;-78
2021/03/30 09:27:36;;;;;;;15.35;10.60;;;11.80;58.00;;;;;;5085800;28;20052;-78
2021/03/30 09:30:12;;;;;;;15.57;10.32;;;11.90;58.10;;;;;;5098600;28;20047;-78
2021/03/30 09:32:40;;;;;;;12.82;10.38;;;12.00;58.20;;;;;;5081746;28;20426;-78
2021/03/30 09:35:15;;;;;;;13.82;10.68;;;12.10;58.10;;;;;;5081663;28;20109;-77
2021/03/30 09:37:45;;;;;;;12.75;10.35;;;12.30;58.10;;;;;;5098178;28;20059;-78
2021/03/30 09:40:22;;;;;;;13.13;10.73;;;12.40;57.90;;;;;;5097409;28;20036;-78
2021/03/30 09:42:48;;;;;;;16.20;10.27;;;12.50;57.70;;;;;;5098013;28;20400;-78
2021/03/30 09:45:35;;;;;;;15.90;10.45;;;12.60;57.70;;;;;;5064286;28;20105;-78
2021/03/30 09:48:13;;;;;;;14.60;9.73;;;12.70;57.70;;;;;;5115100;28;20036;-79
2021/03/30 09:50:46;;;;;;;16.13;9.70;;;12.80;57.20;;;;;;5098577;28;20056;-77
2021/03/30 09:53:12;;;;;;;15.48;9.07;;;12.90;57.00;;;;;;5081117;28;20400;-80
2021/03/30 09:55:40;;;;;;;11.95;8.32;;;13.00;56.70;;;;;;5081515;28;20059;-78
2021/03/30 09:58:16;;;;;;;13.77;8.95;;;13.20;56.80;;;;;;5097801;28;20072;-79
2021/03/30 10:00:49;;;;;;;10.65;7.68;;;13.40;56.50;;;;;;5097810;28;20089;-78
2021/03/30 10:03:16;;;;;;;12.00;7.35;;;13.50;56.70;;;;;;5099152;28;20063;-79
2021/03/30 10:05:42;;;;;;;9.23;7.53;;;13.80;56.20;;;;;;5099743;28;20055;-78
2021/03/30 10:08:19;;;;;;;12.02;7.93;;;14.00;56.20;;;;;;5098955;28;20441;-78
2021/03/30 10:10:48;;;;;;;13.88;8.45;;;14.20;55.90;;;;;;5083571;28;20155;-78
2021/03/30 10:13:28;;;;;;;11.50;8.20;;;14.40;56.20;;;;;;5101503;28;20104;-79
2021/03/30 10:15:55;;;;;;;13.00;7.38;;;14.70;54.90;;;;;;5102506;28;20043;-78
2021/03/30 10:18:23;;;;;;;11.90;7.68;;;14.90;54.40;;;;;;5101630;28;20047;-79
2021/03/30 10:20:54;;;;;;;10.95;8.35;;;15.10;54.00;;;;;;5102245;28;20516;-78
2021/03/30 10:23:22;;;;;;;10.25;6.88;;;15.40;54.40;;;;;;5101086;28;20104;-79
2021/03/30 10:25:49;;;;;;;12.13;7.32;;;15.60;54.50;;;;;;5101876;28;20130;-79
2021/03/30 10:28:30;;;;;;;8.38;6.65;;;15.80;53.70;;;;;;5084175;28;20044;-80
2021/03/30 10:33:42;;;;;;;10.82;6.53;;;16.30;52.60;;;;;;5084986;28;20051;-78
2021/03/30 10:36:10;;;;;;;10.02;6.63;;;16.50;51.80;;;;;;5085124;28;20063;-79
2021/03/30 10:38:37;;;;;;;12.07;7.18;;;16.70;51.90;;;;;;5100865;28;20066;-77
2021/03/30 10:41:04;;;;;;;9.77;6.63;;;16.90;50.70;;;;;;5083851;28;20044;-78
2021/03/30 10:43:30;;;;;;;9.68;6.50;;;17.00;50.50;;;;;;5083424;28;20048;-78
2021/03/30 10:45:56;;;;;;;12.25;6.78;;;17.20;50.30;;;;;;5081468;28;20040;-78
2021/03/30 10:48:23;;;;;;;10.70;6.30;;;17.40;49.80;;;;;;5070878;28;20046;-86
2021/03/30 10:50:51;;;;;;;9.27;6.90;;;17.50;49.20;;;;;;5073496;28;20594;-82
2021/03/30 10:53:17;;;;;;;9.93;7.43;;;17.80;49.40;;;;;;5081154;28;20048;-83
2021/03/30 10:55:43;;;;;;;17.13;7.93;;;17.90;47.90;;;;;;5082173;28;20040;-84
2021/03/30 10:58:11;;;;;;;15.63;7.15;;;18.10;46.90;;;;;;5082813;28;20495;-78
2021/03/30 11:00:37;;;;;;;18.08;7.97;;;18.20;46.00;;;;;;5097448;28;20140;-77
2021/03/30 11:03:04;;;;;;;11.13;7.25;;;18.40;45.30;;;;;;5083424;28;20400;-76
2021/03/30 11:05:30;;;;;;;7.60;6.30;;;18.50;44.80;;;;;;5090724;28;20054;-78
2021/03/30 11:07:56;;;;;;;10.27;7.53;;;18.70;44.10;;;;;;5072704;28;20111;-79
2021/03/30 11:10:22;;;;;;;8.95;5.78;;;18.90;44.20;;;;;;5111057;28;20519;-81
2021/03/30 11:12:48;;;;;;;8.18;4.57;;;19.00;44.00;;;;;;5067903;28;20120;-78
2021/03/30 11:15:14;;;;;;;7.43;4.75;;;19.20;41.90;;;;;;5082478;28;20041;-78
2021/03/30 11:17:40;;;;;;;12.18;5.85;;;19.40;41.10;;;;;;5094429;28;20040;-80
2021/03/30 11:20:07;;;;;;;7.15;5.68;;;19.60;40.90;;;;;;5044974;28;20126;-77
2021/03/30 11:22:33;;;;;;;5.82;4.50;;;19.80;40.80;;;;;;5069231;28;20047;-77
2021/03/30 11:25:02;;;;;;;6.53;5.28;;;19.90;40.80;;;;;;5081032;28;20055;-80
2021/03/30 11:27:30;;;;;;;8.43;5.13;;;20.10;39.90;;;;;;5104384;28;20040;-78
2021/03/30 11:30:07;;;;;;;14.40;5.82;;;20.30;39.40;;;;;;5119910;28;20525;-74
2021/03/30 11:32:44;;;;;;;8.18;5.18;;;20.50;39.20;;;;;;5102755;28;20039;-80
2021/03/30 11:35:28;;;;;;;9.63;5.47;;;20.70;38.70;;;;;;5098460;28;20098;-74
2021/03/30 11:38:09;;;;;;;8.30;5.88;;;21.00;38.50;;;;;;5120435;28;20035;-75
2021/03/30 11:40:37;;;;;;;7.18;5.72;;;21.20;38.60;;;;;;5106929;28;20044;-74
2021/03/30 11:43:02;;;;;;;11.25;5.40;;;21.50;37.50;;;;;;5113819;28;20043;-76
2021/03/30 11:45:28;;;;;;;7.07;5.32;;;21.60;35.90;;;;;;5096883;28;20125;-74
2021/03/30 11:47:54;;;;;;;8.60;6.20;;;21.80;35.40;;;;;;5118133;28;20038;-75
2021/03/30 11:50:21;;;;;;;6.93;5.38;;;22.00;34.40;;;;;;5098712;28;20054;-76
2021/03/30 11:52:46;;;;;;;7.22;5.82;;;22.20;34.00;;;;;;5109243;28;20143;-76
2021/03/30 11:55:12;;;;;;;6.97;5.80;;;22.30;33.80;;;;;;5112741;28;20055;-77
2021/03/30 11:57:43;;;;;;;7.68;5.82;;;22.50;34.20;;;;;;5122133;28;20101;-78
2021/03/30 12:00:10;;;;;;;7.68;5.50;;;22.60;34.20;;;;;;5106898;28;20039;-77
2021/03/30 12:02:35;;;;;;;8.70;6.05;;;22.80;34.60;;;;;;5103306;28;20035;-81
2021/03/30 12:05:02;;;;;;;10.27;5.75;;;23.00;32.80;;;;;;5113615;28;20043;-84
2021/03/30 12:07:27;;;;;;;8.23;5.63;;;23.10;31.50;;;;;;5074221;28;20036;-76
2021/03/30 12:09:53;;;;;;;7.40;5.18;;;23.30;31.50;;;;;;5099811;28;20044;-76
2021/03/30 12:12:19;;;;;;;6.78;4.78;;;23.60;31.60;;;;;;5099113;28;20040;-76
2021/03/30 12:14:45;;;;;;;7.65;5.25;;;23.80;31.40;;;;;;5100458;28;20047;-76
2021/03/30 12:17:11;;;;;;;7.05;5.07;;;24.10;31.50;;;;;;5100994;28;20047;-76
2021/03/30 12:19:36;;;;;;;8.32;5.15;;;24.30;31.30;;;;;;5100105;28;20044;-76
2021/03/30 12:22:02;;;;;;;7.68;5.38;;;24.50;30.00;;;;;;5101002;28;20506;-76
2021/03/30 12:24:28;;;;;;;7.70;5.90;;;24.60;29.90;;;;;;5082689;28;20040;-76
2021/03/30 12:26:54;;;;;;;7.57;5.28;;;24.80;29.80;;;;;;5061964;28;20048;-76
2021/03/30 12:29:20;;;;;;;7.43;5.90;;;24.90;29.90;;;;;;5078955;28;20048;-76
2021/03/30 12:31:46;;;;;;;8.93;5.38;;;25.10;29.70;;;;;;5078473;28;20075;-76
2021/03/30 12:34:13;;;;;;;6.82;6.07;;;25.20;29.40;;;;;;5078961;28;20047;-76
2021/03/30 12:36:39;;;;;;;8.32;6.38;;;25.30;29.30;;;;;;5079583;28;20201;-75
2021/03/30 12:39:08;;;;;;;7.38;6.10;;;25.40;29.10;;;;;;5079349;28;20037;-76
2021/03/30 12:41:34;;;;;;;12.55;6.63;;;25.50;28.60;;;;;;5061524;28;20051;-75
2021/03/30 12:44:00;;;;;;;9.02;6.03;;;25.60;28.20;;;;;;5079863;28;20052;-77
2021/03/30 12:46:26;;;;;;;8.55;5.65;;;25.70;28.10;;;;;;5080118;28;20083;-76
2021/03/30 12:48:52;;;;;;;8.18;5.30;;;25.90;28.00;;;;;;5079439;28;20123;-76
2021/03/30 12:51:18;;;;;;;6.82;5.45;;;26.00;27.80;;;;;;5078599;28;20113;-76
2021/03/30 12:53:44;;;;;;;6.65;5.95;;;26.10;27.60;;;;;;5078087;28;20048;-76
2021/03/30 12:56:10;;;;;;;7.25;6.00;;;26.20;27.40;;;;;;5061954;28;20244;-77
2021/03/30 12:58:35;;;;;;;8.60;6.45;;;26.30;27.30;;;;;;5079269;28;20056;-77